Time;durP1;ratioP1;P1;durP2;ratioP2;P2;SDS_P1;SDS_P2;PMS_P1;PMS_P2;Temp;Humidity;BMP_temperature;BMP_pressure;BME280_temperature;BME280_humidity;BME280_pressure;Samples;Min_cycle;Max_cycle;Signal;HPM_P1;HPM_P2
2023/01/27 00:00:56;;;;;;;3.00;2.55;;;;;;;5.20;57.15;99950.91;4358084;32;31731;-81
2023/01/27 00:03:24;;;;;;;1.83;1.52;;;;;;;5.21;57.17;99950.03;4369722;32;33780;-81
2023/01/27 00:05:52;;;;;;;3.22;2.50;;;;;;;5.11;57.62;99957.19;4359276;32;34583;-81
2023/01/27 00:08:20;;;;;;;1.00;0.65;;;;;;;5.02;57.69;99949.50;4348827;32;33452;-81
2023/01/27 00:13:25;;;;;;;1.23;1.12;;;;;;;5.19;57.56;99941.34;4380429;32;33045;-81
2023/01/27 00:13:38;;;;;;;1.30;1.20;;;;;;;5.07;57.67;99938.94;4377717;32;32813;-81
2023/01/27 00:16:06;;;;;;;0.80;0.80;;;;;;;5.05;57.86;99939.00;4378246;32;34683;-81
2023/01/27 00:18:34;;;;;;;5.95;2.55;;;;;;;5.17;57.62;99943.13;4364674;32;32981;-81
2023/01/27 00:26:36;;;;;;;2.40;1.42;;;;;;;5.00;58.11;99935.59;4380023;32;33672;-81
2023/01/27 00:29:04;;;;;;;3.40;1.83;;;;;;;5.00;57.85;99938.22;4371672;32;33364;-80
2023/01/27 00:34:18;;;;;;;1.50;1.40;;;;;;;5.07;57.46;99925.87;4380557;32;34208;-81
2023/01/27 00:36:45;;;;;;;1.48;1.42;;;;;;;5.12;57.31;99929.25;4378156;32;33041;-81
2023/01/27 00:39:13;;;;;;;2.12;1.95;;;;;;;5.29;56.80;99926.31;4377454;32;33460;-80
2023/01/27 00:41:42;;;;;;;0.93;0.93;;;;;;;5.37;56.04;99927.91;4384208;32;33784;-81
2023/01/27 00:44:12;;;;;;;0.45;0.40;;;;;;;5.53;55.01;99915.34;4366715;32;32949;-81
2023/01/27 00:46:40;;;;;;;0.43;0.40;;;;;;;5.38;55.21;99937.47;4354878;32;33331;-81
2023/01/27 00:49:09;;;;;;;1.30;0.77;;;;;;;5.14;56.05;99932.72;4384036;32;34457;-81
2023/01/27 00:51:37;;;;;;;7.12;1.45;;;;;;;4.98;56.77;99937.38;4393785;32;33602;-81
2023/01/27 00:54:04;;;;;;;0.77;0.77;;;;;;;5.06;56.74;99937.22;4377896;32;32670;-80
2023/01/27 00:56:32;;;;;;;7.35;2.90;;;;;;;5.14;56.64;99940.56;4379155;32;33936;-82
2023/01/27 00:59:00;;;;;;;1.37;1.27;;;;;;;5.31;55.81;99935.84;4379183;32;34739;-81
2023/01/27 01:01:28;;;;;;;2.47;2.15;;;;;;;5.23;55.87;99937.78;4374241;32;32691;-82
2023/01/27 01:03:59;;;;;;;2.35;1.37;;;;;;;5.09;56.39;99939.81;4389988;32;33157;-82
2023/01/27 01:06:27;;;;;;;3.20;0.95;;;;;;;5.17;56.12;99932.66;4378931;32;32727;-81
2023/01/27 01:08:56;;;;;;;1.73;1.60;;;;;;;5.39;55.41;99941.81;4364250;32;33681;-81
2023/01/27 01:11:24;;;;;;;1.48;1.40;;;;;;;5.25;55.61;99935.97;4376059;32;32905;-81
2023/01/27 01:13:52;;;;;;;2.28;1.05;;;;;;;5.18;56.13;99931.78;4382563;32;33618;-81
2023/01/27 01:16:23;;;;;;;0.40;0.40;;;;;;;5.24;56.25;99936.88;4369264;32;33501;-81
2023/01/27 01:18:52;;;;;;;1.98;1.55;;;;;;;5.16;56.23;99938.78;4364087;32;33013;-80
2023/01/27 01:21:19;;;;;;;3.08;1.67;;;;;;;5.10;56.58;99929.28;4372212;32;32626;-80
2023/01/27 01:23:48;;;;;;;2.75;1.62;;;;;;;4.95;56.89;99936.59;4381940;32;34530;-80
2023/01/27 01:26:16;;;;;;;0.52;0.52;;;;;;;5.04;56.70;99931.19;4372329;32;33264;-81
2023/01/27 01:28:44;;;;;;;0.73;0.73;;;;;;;5.17;56.29;99927.41;4376600;32;34807;-81
2023/01/27 01:31:17;;;;;;;0.47;0.47;;;;;;;5.05;56.69;99932.91;4364261;32;33995;-81
2023/01/27 01:33:46;;;;;;;1.65;1.50;;;;;;;5.11;56.59;99932.78;4373479;32;33887;-81
2023/01/27 01:36:17;;;;;;;0.90;0.90;;;;;;;5.00;56.56;99919.03;4351740;32;33010;-81
2023/01/27 01:38:45;;;;;;;0.70;0.70;;;;;;;5.03;56.47;99921.56;4364149;32;34038;-81
2023/01/27 01:41:17;;;;;;;1.85;1.35;;;;;;;5.14;55.87;99917.03;4376269;32;33594;-81
2023/01/27 01:43:45;;;;;;;;;;;;;;;5.06;55.70;99919.78;4370674;32;33836;-81
2023/01/27 01:46:13;;;;;;;0.52;0.52;;;;;;;4.95;55.79;99921.75;4376267;32;33789;-80
2023/01/27 01:49:02;;;;;;;0.57;0.57;;;;;;;5.00;55.71;99919.03;4382680;32;34882;-80
2023/01/27 01:51:38;;;;;;;0.22;0.22;;;;;;;4.99;55.71;99922.56;4374624;32;33963;-81
2023/01/27 01:54:08;;;;;;;2.42;2.22;;;;;;;4.94;55.66;99925.25;4381558;32;33932;-81
2023/01/27 01:56:43;;;;;;;0.30;0.30;;;;;;;5.19;54.38;99923.03;4370577;32;32875;-81
2023/01/27 01:59:14;;;;;;;1.30;1.20;;;;;;;5.23;53.67;99927.31;4371370;32;33989;-80
2023/01/27 02:01:42;;;;;;;1.60;1.50;;;;;;;5.16;54.10;99923.06;4370212;32;32421;-81
2023/01/27 02:04:17;;;;;;;1.00;0.95;;;;;;;5.13;54.44;99923.16;4375534;32;33523;-80
2023/01/27 02:06:53;;;;;;;0.30;0.30;;;;;;;5.04;54.87;99925.94;4369348;32;33438;-81
2023/01/27 02:09:21;;;;;;;3.50;2.50;;;;;;;5.10;54.94;99915.34;4369800;32;33240;-81
2023/01/27 02:11:49;;;;;;;1.83;1.73;;;;;;;4.93;55.64;99913.03;4383183;32;33463;-81
2023/01/27 02:14:17;;;;;;;0.30;0.30;;;;;;;5.01;55.49;99911.16;4370750;32;34322;-81
2023/01/27 02:16:45;;;;;;;3.95;1.75;;;;;;;5.04;55.58;99912.88;4371381;32;33994;-81
2023/01/27 02:19:23;;;;;;;0.70;0.70;;;;;;;4.92;56.00;99900.84;4368767;32;34195;-81
2023/01/27 02:21:54;;;;;;;2.83;1.98;;;;;;;4.97;56.05;99893.78;4372529;32;34336;-80
2023/01/27 02:24:25;;;;;;;0.30;0.30;;;;;;;5.00;55.94;99898.97;4361432;32;34243;-80
2023/01/27 02:26:53;;;;;;;0.50;0.50;;;;;;;5.00;55.94;99892.88;4370883;32;33959;-80
2023/01/27 02:29:21;;;;;;;0.47;0.47;;;;;;;4.90;56.43;99886.09;4369708;32;34062;-81
2023/01/27 02:31:49;;;;;;;1.23;1.23;;;;;;;4.94;56.03;99887.75;4364992;32;33575;-81
2023/01/27 02:34:20;;;;;;;2.62;1.87;;;;;;;4.95;56.22;99881.63;4357083;32;33930;-82
2023/01/27 02:36:57;;;;;;;1.70;1.10;;;;;;;4.86;56.44;99883.53;4383553;32;34211;-81
2023/01/27 02:39:33;;;;;;;2.25;2.05;;;;;;;4.93;56.29;99880.78;4370727;32;33971;-80
2023/01/27 02:42:03;;;;;;;0.77;0.77;;;;;;;4.82;56.45;99871.41;4358500;32;32487;-81
2023/01/27 02:44:31;;;;;;;0.98;0.98;;;;;;;4.97;55.99;99870.22;4360281;32;33559;-81
2023/01/27 02:47:01;;;;;;;4.28;1.95;;;;;;;4.77;56.26;99865.38;4382501;32;33695;-81
2023/01/27 02:49:28;;;;;;;0.95;0.95;;;;;;;4.76;56.39;99857.59;4342766;32;32908;-81
2023/01/27 02:51:56;;;;;;;7.60;2.85;;;;;;;4.87;56.11;99861.69;4370763;32;34236;-81
2023/01/27 02:54:25;;;;;;;1.60;1.45;;;;;;;4.84;55.90;99861.78;4358315;32;33307;-81
2023/01/27 02:56:53;;;;;;;0.80;0.80;;;;;;;4.59;56.44;99857.88;4363518;32;32742;-81
2023/01/27 02:59:21;;;;;;;1.40;1.30;;;;;;;4.70;56.09;99853.34;4371541;32;33590;-80
2023/01/27 03:01:49;;;;;;;0.60;0.52;;;;;;;4.59;56.11;99855.25;4371268;32;33303;-81
2023/01/27 03:04:18;;;;;;;0.60;0.60;;;;;;;4.62;55.68;99858.69;4359303;32;34461;-80
2023/01/27 03:06:47;;;;;;;1.73;1.62;;;;;;;4.40;56.12;99854.75;4370899;32;33347;-81
2023/01/27 03:09:14;;;;;;;1.80;1.48;;;;;;;4.36;55.80;99856.53;4398193;32;34383;-81
2023/01/27 03:20:02;;;;;;;1.45;1.35;;;;;;;4.28;55.67;99844.50;4379233;32;33900;-81
2023/01/27 03:22:29;;;;;;;1.35;1.15;;;;;;;4.24;55.93;99842.84;4394626;32;33615;-80
2023/01/27 03:24:58;;;;;;;1.73;1.62;;;;;;;4.34;55.69;99834.81;4376940;32;33925;-81
2023/01/27 03:27:27;;;;;;;0.00;0.00;;;;;;;4.24;55.98;99843.69;4382682;32;33049;-82
2023/01/27 03:29:57;;;;;;;0.45;0.37;;;;;;;4.25;55.95;99840.19;4373515;32;34428;-82
2023/01/27 03:32:27;;;;;;;0.90;0.90;;;;;;;4.42;55.29;99836.44;4370607;32;33647;-82
2023/01/27 03:34:57;;;;;;;1.02;0.85;;;;;;;4.25;56.07;99834.97;4395686;32;32740;-80
2023/01/27 03:48:36;;;;;;;0.55;0.55;;;;;;;3.99;57.56;99824.09;4375654;32;33950;-82
2023/01/27 03:51:06;;;;;;;2.55;1.85;;;;;;;4.12;57.23;99817.75;4370262;32;32858;-82
2023/01/27 03:53:34;;;;;;;0.95;0.95;;;;;;;4.17;56.99;99829.00;4380511;32;33595;-82
2023/01/27 03:56:03;;;;;;;2.80;2.33;;;;;;;4.17;57.09;99820.28;4382071;32;33196;-82
2023/01/27 03:58:35;;;;;;;1.00;0.88;;;;;;;4.11;57.38;99821.28;4370304;32;33144;-82
2023/01/27 04:01:04;;;;;;;;;;;;;;;4.15;57.30;99817.72;4381018;32;33173;-82
2023/01/27 04:09:11;;;;;;;0.28;0.28;;;;;;;4.13;57.42;99809.06;4377629;32;33465;-82
2023/01/27 04:11:53;;;;;;;0.40;0.40;;;;;;;4.00;57.68;99802.31;4376654;32;34176;-82
2023/01/27 04:14:22;;;;;;;2.62;0.70;;;;;;;3.97;57.89;99810.19;4369390;32;32914;-82
2023/01/27 04:16:52;;;;;;;0.55;0.55;;;;;;;4.09;57.85;99802.16;4382802;32;36103;-82
2023/01/27 04:19:19;;;;;;;2.65;0.98;;;;;;;4.05;57.72;99805.72;4375335;32;33889;-82
2023/01/27 04:21:48;;;;;;;0.25;0.25;;;;;;;4.04;57.62;99804.00;4357978;32;33361;-81
2023/01/27 04:24:16;;;;;;;0.10;0.10;;;;;;;4.10;57.53;99798.66;4369341;32;33341;-82
2023/01/27 04:26:45;;;;;;;1.70;1.60;;;;;;;4.00;57.69;99802.31;4366433;32;32841;-82
2023/01/27 04:29:13;;;;;;;0.93;0.88;;;;;;;4.04;57.37;99799.62;4368632;32;34798;-82
2023/01/27 04:31:41;;;;;;;1.12;1.12;;;;;;;3.95;57.41;99804.13;4358961;32;34337;-81
2023/01/27 04:34:10;;;;;;;0.62;0.62;;;;;;;3.85;57.67;99798.22;4382981;32;32647;-81
2023/01/27 04:36:39;;;;;;;0.73;0.73;;;;;;;3.84;57.57;99802.53;4361924;32;32216;-81
2023/01/27 04:39:08;;;;;;;1.85;1.05;;;;;;;3.73;57.66;99799.25;4376257;32;34482;-81
2023/01/27 04:41:36;;;;;;;0.93;0.93;;;;;;;3.80;57.35;99800.03;4369133;32;34229;-81
2023/01/27 04:44:05;;;;;;;0.95;0.65;;;;;;;3.81;56.98;99812.19;4395706;32;34266;-81
2023/01/27 04:46:33;;;;;;;0.05;0.05;;;;;;;3.75;57.05;99801.81;4370612;32;34472;-81
2023/01/27 04:49:01;;;;;;;3.25;1.50;;;;;;;3.67;57.13;99811.56;4378738;32;34753;-81
2023/01/27 04:51:29;;;;;;;0.75;0.75;;;;;;;3.85;56.50;99813.88;4370479;32;33035;-81
2023/01/27 04:53:57;;;;;;;4.75;0.65;;;;;;;3.75;56.53;99815.78;4376164;32;32175;-82
2023/01/27 04:56:30;;;;;;;1.02;0.95;;;;;;;3.84;56.18;99813.00;4378653;32;33590;-82
2023/01/27 04:59:00;;;;;;;0.47;0.47;;;;;;;3.77;56.33;99819.22;4376731;32;32577;-82
2023/01/27 05:01:28;;;;;;;0.90;0.82;;;;;;;3.83;55.90;99819.09;4386491;32;32902;-82
2023/01/27 05:03:56;;;;;;;0.55;0.55;;;;;;;3.70;55.92;99819.31;4392292;32;33526;-81
2023/01/27 05:06:24;;;;;;;0.43;0.17;;;;;;;3.66;55.93;99834.19;4392613;32;33867;-81
2023/01/27 05:08:52;;;;;;;0.43;0.43;;;;;;;3.80;55.59;99827.00;4356912;32;33586;-82
2023/01/27 05:11:20;;;;;;;0.22;0.22;;;;;;;3.68;55.54;99827.19;4362562;32;34770;-81
2023/01/27 05:13:48;;;;;;;0.00;0.00;;;;;;;3.76;55.47;99830.56;4355896;32;32425;-82
2023/01/27 05:16:18;;;;;;;0.17;0.17;;;;;;;3.60;55.60;99831.66;4349585;32;34355;-82
2023/01/27 05:18:47;;;;;;;0.90;0.85;;;;;;;3.50;55.77;99817.00;4349838;32;33781;-81
2023/01/27 05:21:18;;;;;;;0.80;0.80;;;;;;;3.65;55.50;99821.16;4374076;32;34488;-82
2023/01/27 05:23:46;;;;;;;0.00;0.00;;;;;;;3.60;55.62;99819.47;4367895;32;34274;-81
2023/01/27 05:26:17;;;;;;;0.10;0.10;;;;;;;3.59;55.70;99822.97;4374010;32;34198;-81
2023/01/27 05:28:46;;;;;;;2.33;1.87;;;;;;;3.67;55.57;99820.25;4364080;32;33943;-81
2023/01/27 05:31:19;;;;;;;1.48;0.52;;;;;;;3.65;55.50;99822.00;4374542;32;34170;-82
2023/01/27 05:33:49;;;;;;;0.20;0.20;;;;;;;3.66;55.46;99826.37;4351119;32;32985;-81
2023/01/27 05:36:18;;;;;;;1.85;1.75;;;;;;;3.56;55.67;99822.12;4350976;32;33524;-82
2023/01/27 05:38:47;;;;;;;0.70;0.70;;;;;;;3.60;56.04;99823.81;4363895;32;35115;-81
2023/01/27 05:41:15;;;;;;;4.18;0.85;;;;;;;3.56;55.99;99823.03;4363194;32;34098;-80
2023/01/27 05:43:44;;;;;;;0.85;0.85;;;;;;;3.55;56.13;99817.81;4363206;32;32337;-80
2023/01/27 05:46:17;;;;;;;1.30;1.23;;;;;;;3.36;56.50;99832.00;4362200;32;33779;-80
2023/01/27 05:48:47;;;;;;;1.90;1.65;;;;;;;3.43;56.65;99825.84;4363967;32;32573;-81
2023/01/27 05:51:17;;;;;;;9.98;1.95;;;;;;;3.34;56.75;99822.47;4359790;32;33795;-81
2023/01/27 05:53:45;;;;;;;0.70;0.70;;;;;;;3.49;56.56;99828.34;4350652;32;33520;-81
2023/01/27 05:56:15;;;;;;;1.27;1.17;;;;;;;3.43;56.49;99825.84;4345391;32;32080;-81
2023/01/27 05:58:44;;;;;;;0.82;0.57;;;;;;;3.15;57.52;99835.78;4351755;32;33956;-80
2023/01/27 06:01:19;;;;;;;2.15;0.90;;;;;;;3.24;57.39;99831.31;4362320;32;33879;-81
2023/01/27 06:03:48;;;;;;;0.00;0.00;;;;;;;3.38;56.66;99832.87;4351181;32;34095;-81
2023/01/27 06:06:18;;;;;;;1.83;1.60;;;;;;;3.27;56.92;99836.47;4363310;32;34505;-81
2023/01/27 06:08:46;;;;;;;2.00;0.43;;;;;;;3.25;57.13;99834.78;4372789;32;33739;-81
2023/01/27 06:11:15;;;;;;;0.62;0.62;;;;;;;3.18;57.50;99836.62;4383393;32;33901;-81
2023/01/27 06:13:43;;;;;;;2.12;1.98;;;;;;;3.33;56.73;99831.19;4365028;32;32474;-81
2023/01/27 06:16:13;;;;;;;0.98;0.98;;;;;;;3.17;57.56;99827.03;4370767;32;32716;-81
2023/01/27 06:18:41;;;;;;;2.58;2.37;;;;;;;3.23;57.23;99829.59;4357977;32;32936;-81
2023/01/27 06:21:10;;;;;;;3.40;1.48;;;;;;;3.20;57.19;99827.00;4392862;32;34365;-81
2023/01/27 06:23:38;;;;;;;1.00;1.00;;;;;;;3.20;57.18;99818.31;4355864;32;32917;-81
2023/01/27 06:26:09;;;;;;;0.45;0.45;;;;;;;3.15;57.55;99821.00;4369501;32;33562;-81
2023/01/27 06:28:37;;;;;;;2.33;2.17;;;;;;;3.23;57.62;99815.66;4371189;32;34691;-81
2023/01/27 06:31:12;;;;;;;0.10;0.10;;;;;;;3.20;57.78;99824.41;4384402;32;32788;-82
2023/01/27 06:33:40;;;;;;;1.27;1.17;;;;;;;3.23;57.54;99818.25;4395088;32;33977;-81
2023/01/27 06:36:10;;;;;;;1.33;0.15;;;;;;;3.15;57.96;99826.22;4369913;32;33173;-81
2023/01/27 06:38:38;;;;;;;1.55;0.75;;;;;;;3.14;58.02;99824.50;4366788;32;34833;-81
2023/01/27 06:41:06;;;;;;;0.10;0.10;;;;;;;3.29;57.71;99823.41;4369496;32;34112;-81
2023/01/27 06:43:33;;;;;;;1.20;1.10;;;;;;;3.03;58.56;99823.75;4372084;32;32913;-81
2023/01/27 06:46:01;;;;;;;0.60;0.35;;;;;;;3.12;58.39;99826.25;4370791;32;32772;-81
2023/01/27 06:48:32;;;;;;;0.22;0.22;;;;;;;3.10;58.42;99833.25;4394423;32;34324;-81
2023/01/27 06:51:00;;;;;;;0.25;0.25;;;;;;;3.22;58.34;99833.06;4376018;32;32983;-81
2023/01/27 06:53:28;;;;;;;1.23;0.45;;;;;;;3.29;57.93;99833.84;4391821;32;33534;-81
2023/01/27 06:55:57;;;;;;;0.52;0.52;;;;;;;3.17;58.87;99839.22;4377041;32;32715;-81
2023/01/27 06:58:26;;;;;;;0.28;0.28;;;;;;;3.14;58.86;99834.06;4378341;32;33716;-81
2023/01/27 07:00:54;;;;;;;0.35;0.35;;;;;;;3.50;57.91;99827.47;4370736;32;34075;-81
2023/01/27 07:03:22;;;;;;;0.93;0.52;;;;;;;3.42;57.97;99839.75;4371105;32;33096;-80
2023/01/27 07:05:51;;;;;;;1.27;1.17;;;;;;;3.28;58.61;99837.34;4367392;32;32721;-79
2023/01/27 07:08:18;;;;;;;1.45;1.35;;;;;;;3.58;57.35;99836.06;4384971;32;34623;-80
2023/01/27 07:10:46;;;;;;;7.03;1.75;;;;;;;3.51;56.73;99821.34;4354091;32;32571;-80
2023/01/27 07:13:14;;;;;;;3.70;1.45;;;;;;;3.49;56.22;99833.56;4356484;32;33644;-80
2023/01/27 07:15:42;;;;;;;3.90;3.35;;;;;;;3.65;55.87;99826.37;4367876;32;33792;-80
2023/01/27 07:18:12;;;;;;;0.65;0.65;;;;;;;3.67;55.43;99819.38;4356114;32;33735;-80
2023/01/27 07:20:40;;;;;;;0.70;0.70;;;;;;;3.79;54.26;99838.31;4368814;32;34219;-80
2023/01/27 07:23:09;;;;;;;0.30;0.30;;;;;;;3.94;53.95;99834.63;4357205;32;34025;-80
2023/01/27 07:25:38;;;;;;;5.07;3.00;;;;;;;3.79;54.20;99838.31;4369246;32;33776;-80
2023/01/27 07:28:05;;;;;;;5.10;2.05;;;;;;;3.85;53.85;99833.03;4354894;32;33465;-80
2023/01/27 07:30:33;;;;;;;0.55;0.55;;;;;;;3.70;53.69;99835.00;4369129;32;34086;-80
2023/01/27 07:33:06;;;;;;;0.75;0.40;;;;;;;3.91;53.36;99834.66;4332900;32;32516;-80
2023/01/27 07:35:34;;;;;;;;;;;;;;;4.00;53.34;99844.12;4360945;32;32892;-80
2023/01/27 07:38:02;;;;;;;2.25;2.05;;;;;;;3.93;52.86;99842.47;4357458;32;32945;-80
2023/01/27 07:40:30;;;;;;;0.03;0.03;;;;;;;3.95;53.34;99845.94;4370228;32;32842;-80
2023/01/27 07:42:58;;;;;;;0.57;0.57;;;;;;;3.70;52.14;99838.47;4356314;32;32842;-80
2023/01/27 07:45:27;;;;;;;0.40;0.40;;;;;;;3.91;52.22;99844.25;4349620;32;33880;-80
2023/01/27 07:48:00;;;;;;;2.97;1.15;;;;;;;4.10;51.79;99833.47;4360978;32;33919;-80
2023/01/27 07:50:28;;;;;;;0.30;0.30;;;;;;;4.12;51.73;99828.22;4356728;32;34208;-80
2023/01/27 07:53:00;;;;;;;0.62;0.62;;;;;;;4.10;51.66;99824.78;4355139;32;33482;-80
2023/01/27 07:55:29;;;;;;;1.58;1.48;;;;;;;3.96;52.04;99818.91;4361980;32;32640;-80
2023/01/27 07:57:56;;;;;;;0.03;0.03;;;;;;;4.19;51.81;99819.41;4359368;32;32123;-80
2023/01/27 08:00:24;;;;;;;0.40;0.40;;;;;;;4.34;52.07;99818.25;4356611;32;33596;-80
2023/01/27 08:02:52;;;;;;;1.48;1.37;;;;;;;4.29;53.24;99820.94;4358448;32;33614;-80
2023/01/27 08:05:21;;;;;;;4.87;0.95;;;;;;;4.50;52.67;99824.06;4380074;32;34494;-80
2023/01/27 08:07:50;;;;;;;3.28;1.90;;;;;;;4.89;50.19;99825.06;4348586;32;226080;-80
2023/01/27 08:10:18;;;;;;;2.50;1.37;;;;;;;4.76;50.00;99837.50;4349599;32;34164;-80
2023/01/27 08:12:46;;;;;;;2.72;0.95;;;;;;;4.54;51.72;99838.81;4349829;32;32042;-80
2023/01/27 08:15:14;;;;;;;2.22;1.55;;;;;;;4.86;50.34;99832.97;4348708;32;32791;-81
2023/01/27 08:17:56;;;;;;;0.55;0.55;;;;;;;4.73;50.69;99836.69;4362793;32;33636;-80
2023/01/27 08:20:25;;;;;;;0.08;0.08;;;;;;;5.09;48.62;99835.13;4349579;32;32693;-81
2023/01/27 08:22:53;;;;;;;1.60;1.35;;;;;;;4.85;49.53;99828.63;4375760;32;32410;-80
2023/01/27 08:25:21;;;;;;;6.95;1.80;;;;;;;4.71;50.64;99835.88;4349729;32;34269;-80
2023/01/27 08:27:53;;;;;;;4.65;1.85;;;;;;;5.02;49.58;99833.50;4374373;32;32747;-80
2023/01/27 08:30:21;;;;;;;3.10;1.00;;;;;;;5.02;48.76;99838.75;4341863;32;33029;-80
2023/01/27 08:32:49;;;;;;;0.40;0.40;;;;;;;4.63;50.93;99843.88;4374089;32;34907;-80
2023/01/27 08:35:16;;;;;;;1.73;0.93;;;;;;;4.76;51.38;99836.66;4359304;32;33542;-80
2023/01/27 08:37:46;;;;;;;3.03;1.45;;;;;;;4.89;50.94;99830.28;4350602;32;34834;-81
2023/01/27 08:40:15;;;;;;;0.40;0.40;;;;;;;4.87;51.26;99830.31;4374860;32;33629;-80
2023/01/27 08:42:43;;;;;;;4.07;2.50;;;;;;;4.77;51.12;99834.00;4339561;32;32831;-81
2023/01/27 08:45:11;;;;;;;0.60;0.60;;;;;;;4.88;51.20;99837.25;4349697;32;32645;-80
2023/01/27 08:47:39;;;;;;;3.08;1.92;;;;;;;4.93;51.28;99834.53;4376031;32;34006;-80
2023/01/27 08:50:08;;;;;;;1.17;1.12;;;;;;;5.44;48.78;99838.72;4361278;32;32769;-80
2023/01/27 08:52:36;;;;;;;1.80;1.70;;;;;;;5.46;48.09;99839.53;4362500;32;33420;-80
2023/01/27 08:55:04;;;;;;;0.43;0.43;;;;;;;5.53;47.66;99849.00;4349233;32;33432;-80
2023/01/27 08:57:31;;;;;;;0.37;0.37;;;;;;;5.56;48.00;99841.94;4364455;32;32956;-80
2023/01/27 09:00:04;;;;;;;8.38;0.98;;;;;;;5.48;48.20;99843.84;4351554;32;34752;-80
2023/01/27 09:02:31;;;;;;;2.72;2.00;;;;;;;5.49;48.82;99850.81;4364245;32;34262;-80
2023/01/27 09:04:59;;;;;;;2.58;0.73;;;;;;;5.63;47.59;99842.66;4353512;32;32210;-81
2023/01/27 09:07:27;;;;;;;1.90;0.50;;;;;;;5.64;46.79;99839.13;4338220;32;32859;-80
2023/01/27 09:09:54;;;;;;;0.57;0.43;;;;;;;5.67;46.77;99854.78;4379290;32;34730;-80
2023/01/27 09:12:40;;;;;;;1.75;1.23;;;;;;;5.60;47.27;99847.94;4381243;32;32686;-80
2023/01/27 09:15:08;;;;;;;1.12;1.05;;;;;;;5.31;49.52;99857.31;4376549;32;33126;-80
2023/01/27 09:17:35;;;;;;;3.67;1.92;;;;;;;5.38;49.88;99858.91;4378311;32;32798;-80
2023/01/27 09:20:04;;;;;;;1.75;1.65;;;;;;;5.50;49.86;99856.91;4379521;32;34466;-80
2023/01/27 09:22:32;;;;;;;0.65;0.40;;;;;;;5.75;48.64;99858.09;4384489;32;32039;-80
2023/01/27 09:24:59;;;;;;;0.28;0.28;;;;;;;5.99;47.64;99853.22;4377596;32;33742;-80
2023/01/27 09:27:27;;;;;;;0.17;0.17;;;;;;;5.62;46.68;99860.12;4356675;32;35425;-80
2023/01/27 09:30:07;;;;;;;0.55;0.55;;;;;;;5.54;45.40;99864.66;4378774;32;34712;-80
2023/01/27 09:32:36;;;;;;;0.40;0.40;;;;;;;5.52;46.46;99860.38;4372601;32;32657;-80
2023/01/27 09:35:04;;;;;;;0.05;0.05;;;;;;;5.60;45.33;99861.03;4378785;32;32378;-80
2023/01/27 09:37:55;;;;;;;0.05;0.05;;;;;;;5.50;44.17;99867.38;4379130;32;33123;-80
2023/01/27 09:40:42;;;;;;;0.43;0.43;;;;;;;5.51;44.46;99863.91;4378872;32;33262;-80
2023/01/27 09:43:40;;;;;;;1.40;1.30;;;;;;;5.65;45.15;99856.59;4366522;32;32788;-80
2023/01/27 09:46:46;;;;;;;1.73;1.62;;;;;;;5.58;46.62;99862.84;4396977;32;33416;-80
2023/01/27 09:49:38;;;;;;;0.15;0.15;;;;;;;5.53;45.38;99869.94;4376695;32;34840;-80
2023/01/27 09:52:28;;;;;;;0.82;0.57;;;;;;;5.21;47.01;99866.25;4388662;32;33001;-80
2023/01/27 09:55:34;;;;;;;0.00;0.00;;;;;;;5.37;46.82;99867.66;4383142;32;32602;-80
2023/01/27 09:58:38;;;;;;;0.35;0.35;;;;;;;5.37;47.24;99862.44;4353484;32;33886;-80
2023/01/27 10:01:47;;;;;;;0.08;0.08;;;;;;;5.00;47.80;99874.56;4378900;32;33887;-80
2023/01/27 10:04:34;;;;;;;0.47;0.47;;;;;;;4.91;48.16;99870.34;4376657;32;34118;-80
2023/01/27 10:07:20;;;;;;;7.78;1.65;;;;;;;4.96;48.51;99870.28;4378714;32;34336;-80
2023/01/27 10:10:07;;;;;;;0.00;0.00;;;;;;;4.85;48.86;99863.50;4381608;32;34578;-80
2023/01/27 10:13:12;;;;;;;0.00;0.00;;;;;;;4.33;50.79;99864.44;4382988;32;33878;-80
2023/01/27 10:15:55;;;;;;;3.55;1.67;;;;;;;4.53;50.99;99868.47;4382481;32;34852;-80
2023/01/27 10:18:39;;;;;;;0.00;0.00;;;;;;;4.51;50.27;99857.16;4386053;32;34434;-80
2023/01/27 10:21:52;;;;;;;0.30;0.30;;;;;;;4.63;50.29;99857.78;4376664;32;34781;-80
2023/01/27 10:24:41;;;;;;;1.55;0.98;;;;;;;3.96;52.99;99864.19;4367886;32;33085;-79
2023/01/27 10:27:16;;;;;;;0.75;0.68;;;;;;;4.51;51.51;99857.16;4369054;32;33033;-80
2023/01/27 10:29:58;;;;;;;3.00;2.17;;;;;;;4.84;50.62;99859.16;4368909;32;33394;-79
2023/01/27 10:32:31;;;;;;;5.28;0.60;;;;;;;4.91;50.82;99854.66;4369803;32;32285;-80
2023/01/27 10:35:08;;;;;;;0.70;0.62;;;;;;;4.98;50.81;99855.38;4369837;32;33921;-80
2023/01/27 10:37:42;;;;;;;0.03;0.03;;;;;;;4.90;51.07;99857.31;4375782;32;33918;-80
2023/01/27 10:40:35;;;;;;;0.00;0.00;;;;;;;5.10;51.05;99852.53;4384587;32;34023;-79
2023/01/27 10:43:15;;;;;;;0.60;0.60;;;;;;;4.85;52.27;99853.03;4381550;32;33560;-80
2023/01/27 10:45:51;;;;;;;1.80;1.25;;;;;;;4.90;52.46;99855.56;4375553;32;33898;-80
2023/01/27 10:48:29;;;;;;;0.00;0.00;;;;;;;5.03;52.97;99848.31;4383096;32;35064;-80
2023/01/27 10:51:19;;;;;;;0.00;0.00;;;;;;;5.10;51.85;99839.44;4368631;32;33289;-79
2023/01/27 10:53:57;;;;;;;0.45;0.45;;;;;;;4.96;52.77;99844.09;4370738;32;33869;-80
2023/01/27 10:56:51;;;;;;;1.35;1.25;;;;;;;4.85;52.75;99853.03;4383963;32;34438;-79
2023/01/27 10:59:37;;;;;;;0.52;0.52;;;;;;;4.68;53.69;99852.47;4380346;32;34213;-80
2023/01/27 11:02:08;;;;;;;0.10;0.10;;;;;;;4.67;54.24;99844.69;4372799;32;33015;-80
2023/01/27 11:04:41;;;;;;;0.10;0.10;;;;;;;4.61;54.76;99848.28;4370568;32;33028;-80
2023/01/27 11:07:15;;;;;;;0.68;0.68;;;;;;;4.55;55.39;99843.13;4367792;32;33348;-80
2023/01/27 11:09:48;;;;;;;1.52;0.75;;;;;;;4.59;55.60;99839.56;4350735;32;33682;-80
2023/01/27 11:12:19;;;;;;;0.00;0.00;;;;;;;4.79;55.42;99839.19;4351260;32;34493;-80
2023/01/27 11:14:50;;;;;;;0.47;0.47;;;;;;;4.89;55.15;99838.16;4362619;32;32765;-80
2023/01/27 11:17:27;;;;;;;0.40;0.40;;;;;;;4.99;55.41;99828.34;4362780;32;33973;-80
2023/01/27 11:20:03;;;;;;;1.08;0.88;;;;;;;4.96;55.74;99825.78;4363080;32;33381;-80
2023/01/27 11:22:46;;;;;;;0.85;0.57;;;;;;;4.94;55.43;99830.16;4374303;32;33484;-80
2023/01/27 11:25:25;;;;;;;0.52;0.52;;;;;;;5.08;54.89;99823.78;4374414;32;32676;-80
2023/01/27 11:28:16;;;;;;;0.00;0.00;;;;;;;4.88;56.04;99821.56;4362475;32;33661;-80
2023/01/27 11:31:09;;;;;;;0.45;0.45;;;;;;;4.85;57.32;99824.25;4348322;32;34369;-80
2023/01/27 11:34:05;;;;;;;2.30;2.20;;;;;;;4.89;57.18;99822.44;4363052;32;33994;-80
2023/01/27 11:36:33;;;;;;;1.17;1.17;;;;;;;5.10;57.13;99826.37;4368967;32;34240;-80
2023/01/27 11:39:03;;;;;;;5.15;2.85;;;;;;;4.55;58.81;99817.00;4362753;32;32597;-80
2023/01/27 11:41:45;;;;;;;6.55;2.30;;;;;;;4.80;58.50;99815.63;4337801;32;34419;-80
2023/01/27 11:44:28;;;;;;;5.78;4.85;;;;;;;4.99;57.71;99812.66;4374324;32;33520;-80
2023/01/27 11:46:56;;;;;;;1.52;1.42;;;;;;;4.98;57.96;99810.91;4362084;32;33263;-80
2023/01/27 11:49:34;;;;;;;0.55;0.55;;;;;;;5.12;57.79;99803.63;4349371;32;34723;-80
2023/01/27 11:52:28;;;;;;;0.00;0.00;;;;;;;5.06;57.22;99798.53;4362069;32;34343;-81
2023/01/27 11:54:58;;;;;;;0.65;0.65;;;;;;;4.73;58.08;99800.09;4361790;32;34310;-80
2023/01/27 11:57:27;;;;;;;1.42;1.25;;;;;;;5.04;58.46;99789.88;4369062;32;33743;-80
2023/01/27 11:59:58;;;;;;;0.00;0.00;;;;;;;5.27;57.42;99782.38;4349446;32;32641;-80
2023/01/27 12:02:29;;;;;;;;;;;;;;;5.04;57.13;99782.88;4362653;32;33547;-80
2023/01/27 12:05:08;;;;;;;0.40;0.40;;;;;;;4.78;58.01;99775.56;4350367;32;33689;-80
2023/01/27 12:07:48;;;;;;;1.48;0.60;;;;;;;4.91;58.63;99772.69;4353107;32;33769;-80
2023/01/27 12:10:34;;;;;;;0.40;0.40;;;;;;;4.98;58.57;99766.41;4375237;32;33653;-79
2023/01/27 12:13:16;;;;;;;0.80;0.80;;;;;;;5.11;58.10;99765.25;4375009;32;33171;-80
2023/01/27 12:15:46;;;;;;;;;;;;;;;4.90;58.46;99769.22;4385046;32;33576;-80
2023/01/27 12:18:15;;;;;;;0.62;0.62;;;;;;;4.50;60.54;99767.38;4371919;32;33889;-80
2023/01/27 12:20:44;;;;;;;1.27;0.85;;;;;;;4.56;61.18;99763.81;4376494;32;33794;-80
2023/01/27 12:23:25;;;;;;;0.50;0.50;;;;;;;4.94;59.24;99759.53;4380114;32;33086;-80
2023/01/27 12:25:58;;;;;;;0.55;0.55;;;;;;;4.80;59.01;99765.94;4383213;32;33508;-80
2023/01/27 12:28:31;;;;;;;3.05;1.50;;;;;;;4.99;57.93;99755.09;4377130;32;33830;-80
2023/01/27 12:31:26;;;;;;;0.37;0.37;;;;;;;4.84;58.92;99758.84;4385387;32;33746;-80
2023/01/27 12:34:06;;;;;;;1.83;1.60;;;;;;;5.34;56.29;99743.81;4372582;32;33565;-80
2023/01/27 12:36:42;;;;;;;1.95;1.85;;;;;;;5.05;57.41;99745.31;4398134;32;33466;-80
2023/01/27 12:39:28;;;;;;;0.10;0.10;;;;;;;5.31;56.54;99742.09;4388531;32;33809;-81
2023/01/27 12:41:56;;;;;;;4.53;2.10;;;;;;;4.92;58.49;99733.41;4390709;32;33987;-80